Terminal Aerodrome Forecast
Issued by NWS Sioux Falls, SD

Home | Current Version | Previous Version | Graphics & Text | Print | Product List | Glossary Off
Versions: 1 2 3 4 5 6 7 8 9 10 11 12 13 14 15 16 17 18 19 20

000
FTUS43 KFSD 201720
TAFFSD
TAF
KFSD 201720Z 2018/2118 32026G35KT P6SM BKN060
     FM210100 31015G22KT P6SM SCT060
     FM210300 30012KT P6SM SKC
     FM211300 32018G25KT P6SM SCT100=

USA.gov is the U.S. government's official web portal to all federal, state and local government web resources and services.